Time;durP1;ratioP1;P1;durP2;ratioP2;P2;SDS_P1;SDS_P2;PMS_P1;PMS_P2;Temp;Humidity;BMP_temperature;BMP_pressure;BME280_temperature;BME280_humidity;BME280_pressure;Samples;Min_cycle;Max_cycle;Signal;HPM_P1;HPM_P2
2024/01/20 00:02:03;;;;;;;0.73;0.20;;;2.70;37.70;;;;;;5092811;28;20593;-48
2024/01/20 00:04:29;;;;;;;0.73;0.20;;;2.70;37.70;;;;;;5093156;28;20176;-43
2024/01/20 00:06:55;;;;;;;1.07;0.97;;;2.80;37.40;;;;;;5093020;28;20410;-44
2024/01/20 00:09:20;;;;;;;0.70;0.20;;;2.70;37.40;;;;;;5093139;28;20449;-49
2024/01/20 00:11:46;;;;;;;1.00;0.30;;;2.80;37.40;;;;;;5092748;28;20195;-44
2024/01/20 00:14:12;;;;;;;1.30;1.10;;;2.70;37.20;;;;;;5092915;28;20627;-44
2024/01/20 00:16:37;;;;;;;0.70;0.20;;;2.70;37.40;;;;;;5091537;28;20164;-46
2024/01/20 00:19:03;;;;;;;0.80;0.20;;;2.60;37.30;;;;;;5092810;28;20190;-48
2024/01/20 00:21:29;;;;;;;2.70;1.33;;;2.70;37.40;;;;;;5092753;28;20188;-45
2024/01/20 00:23:55;;;;;;;0.77;0.20;;;2.70;37.40;;;;;;5092849;28;20176;-44
2024/01/20 00:26:21;;;;;;;1.20;0.77;;;2.70;37.20;;;;;;5092854;28;20186;-49
2024/01/20 00:28:47;;;;;;;0.80;0.30;;;2.70;37.10;;;;;;5092684;28;20216;-43
2024/01/20 00:31:13;;;;;;;1.13;0.77;;;2.70;37.20;;;;;;5091738;28;20615;-49
2024/01/20 00:33:38;;;;;;;0.80;0.40;;;2.70;37.10;;;;;;5092304;28;20172;-49
2024/01/20 00:36:04;;;;;;;2.97;2.13;;;2.70;37.00;;;;;;5092516;28;20437;-45
2024/01/20 00:38:31;;;;;;;1.40;1.27;;;2.60;37.20;;;;;;5092750;28;20233;-45
2024/01/20 00:40:56;;;;;;;5.10;1.48;;;2.70;37.20;;;;;;5092163;28;20212;-48
2024/01/20 00:43:22;;;;;;;0.80;0.30;;;2.70;37.10;;;;;;5092647;28;20182;-50
2024/01/20 00:45:48;;;;;;;1.13;0.67;;;2.70;37.10;;;;;;5092368;28;20183;-44
2024/01/20 00:48:14;;;;;;;1.43;0.80;;;2.80;36.90;;;;;;5092307;28;21041;-47
2024/01/20 00:50:39;;;;;;;0.73;0.20;;;2.80;36.80;;;;;;5092308;28;20434;-49
2024/01/20 00:53:05;;;;;;;1.67;1.57;;;2.80;36.80;;;;;;5092398;28;20541;-50
2024/01/20 00:55:31;;;;;;;0.83;0.60;;;2.80;36.60;;;;;;5092215;28;20164;-45
2024/01/20 00:57:57;;;;;;;0.80;0.47;;;2.70;36.90;;;;;;5092256;28;20438;-47
2024/01/20 01:00:22;;;;;;;0.80;0.50;;;2.50;37.10;;;;;;5091974;28;20192;-48
2024/01/20 01:02:48;;;;;;;0.77;0.20;;;2.50;37.20;;;;;;5092214;28;20575;-46
2024/01/20 01:05:14;;;;;;;0.80;0.20;;;2.50;37.20;;;;;;5092216;28;20414;-49
2024/01/20 01:07:40;;;;;;;29.35;1.00;;;2.50;37.10;;;;;;5092024;28;20701;-44
2024/01/20 01:10:06;;;;;;;0.80;0.30;;;2.60;36.80;;;;;;5091939;28;20184;-44
2024/01/20 01:12:33;;;;;;;1.17;0.50;;;2.50;37.10;;;;;;5092132;28;20542;-47
2024/01/20 01:14:59;;;;;;;1.35;0.60;;;2.60;36.70;;;;;;5091999;28;20557;-47
2024/01/20 01:17:25;;;;;;;0.80;0.20;;;2.70;36.90;;;;;;5092017;28;20175;-45
2024/01/20 01:19:51;;;;;;;0.70;0.20;;;2.70;36.60;;;;;;5091980;28;20406;-49
2024/01/20 01:22:17;;;;;;;0.80;0.30;;;2.60;36.40;;;;;;5091737;28;20199;-47
2024/01/20 01:24:42;;;;;;;0.73;0.20;;;2.50;36.80;;;;;;5092173;28;20434;-45
2024/01/20 01:27:08;;;;;;;0.87;0.63;;;2.50;36.90;;;;;;5092116;28;20270;-44
2024/01/20 01:29:34;;;;;;;0.70;0.30;;;2.50;36.80;;;;;;5091915;28;20243;-48
2024/01/20 01:32:00;;;;;;;0.70;0.30;;;2.60;36.70;;;;;;5090988;28;20188;-47
2024/01/20 01:34:25;;;;;;;1.45;0.73;;;2.60;36.60;;;;;;5094474;28;20173;-43
2024/01/20 01:36:51;;;;;;;0.70;0.20;;;2.70;36.40;;;;;;5093180;28;20181;-44
2024/01/20 01:39:17;;;;;;;3.53;1.80;;;2.60;36.30;;;;;;5092415;28;20248;-48
2024/01/20 01:41:44;;;;;;;4.13;2.50;;;2.50;36.70;;;;;;5093139;28;20219;-50
2024/01/20 01:44:10;;;;;;;0.80;0.25;;;2.60;36.50;;;;;;5096179;28;20267;-45
2024/01/20 01:46:36;;;;;;;1.10;0.98;;;2.70;36.60;;;;;;5096108;28;20176;-47
2024/01/20 01:49:03;;;;;;;0.80;0.30;;;2.60;36.00;;;;;;5097688;28;20283;-46
2024/01/20 01:51:30;;;;;;;1.52;1.33;;;2.60;36.20;;;;;;5097358;28;20473;-47
2024/01/20 01:53:58;;;;;;;0.90;0.40;;;2.60;36.30;;;;;;5095816;28;20230;-46
2024/01/20 01:56:23;;;;;;;0.80;0.40;;;2.60;36.30;;;;;;5095647;28;20346;-48
2024/01/20 01:58:49;;;;;;;1.57;0.87;;;2.60;36.30;;;;;;5095335;28;20281;-46
2024/01/20 02:01:15;;;;;;;1.10;0.93;;;2.60;36.30;;;;;;5095390;28;20434;-45
2024/01/20 02:03:41;;;;;;;2.10;1.90;;;2.60;36.20;;;;;;5095497;28;20164;-48
2024/01/20 02:06:07;;;;;;;0.75;0.30;;;2.60;36.00;;;;;;5095462;28;20183;-45
2024/01/20 02:08:35;;;;;;;1.17;0.82;;;2.60;36.30;;;;;;5095305;28;20204;-45
2024/01/20 02:11:02;;;;;;;1.08;0.77;;;2.60;36.30;;;;;;5095035;28;20662;-48
2024/01/20 02:13:28;;;;;;;0.80;0.40;;;2.60;36.00;;;;;;5095117;28;20268;-46
2024/01/20 02:15:55;;;;;;;1.48;0.93;;;2.50;36.80;;;;;;5095352;28;20598;-46
2024/01/20 02:18:23;;;;;;;0.70;0.20;;;2.50;36.30;;;;;;5095175;28;20169;-49
2024/01/20 02:20:49;;;;;;;1.85;0.50;;;2.50;36.20;;;;;;5094853;28;20701;-46
2024/01/20 02:23:15;;;;;;;1.10;0.75;;;2.50;35.90;;;;;;5095101;28;20642;-43
2024/01/20 02:25:41;;;;;;;7.70;2.20;;;2.50;36.20;;;;;;5094947;28;20183;-46
2024/01/20 02:28:07;;;;;;;1.10;0.67;;;2.60;36.30;;;;;;5094762;28;20483;-48
2024/01/20 02:30:33;;;;;;;0.80;0.30;;;2.70;36.10;;;;;;5094560;28;20507;-44
2024/01/20 02:32:58;;;;;;;1.00;0.63;;;2.60;35.70;;;;;;5095023;28;20175;-47
2024/01/20 02:35:24;;;;;;;2.50;1.17;;;2.60;36.00;;;;;;5094816;28;20633;-47
2024/01/20 02:37:50;;;;;;;0.80;0.30;;;2.60;35.90;;;;;;5094907;28;20168;-45
2024/01/20 02:40:16;;;;;;;0.97;0.87;;;2.60;35.50;;;;;;5094421;28;20196;-44
2024/01/20 02:42:43;;;;;;;0.88;0.50;;;2.70;35.80;;;;;;5094669;28;20395;-48
2024/01/20 02:45:09;;;;;;;0.70;0.20;;;2.60;35.60;;;;;;5094649;28;20172;-48
2024/01/20 02:47:34;;;;;;;0.80;0.50;;;2.60;35.80;;;;;;5094660;28;20181;-45
2024/01/20 02:50:00;;;;;;;1.10;0.87;;;2.60;35.60;;;;;;5094523;28;20644;-47
2024/01/20 02:52:26;;;;;;;2.30;1.80;;;2.60;35.40;;;;;;5094455;28;20402;-45
2024/01/20 02:54:51;;;;;;;0.80;0.30;;;2.60;35.60;;;;;;5094743;28;20676;-46
2024/01/20 02:57:17;;;;;;;0.80;0.40;;;2.60;35.30;;;;;;5095721;28;20534;-43
2024/01/20 02:59:43;;;;;;;0.80;0.43;;;2.60;35.80;;;;;;5095843;28;20176;-44
2024/01/20 03:02:09;;;;;;;1.53;1.43;;;2.60;35.70;;;;;;5094087;28;20974;-50
2024/01/20 03:04:34;;;;;;;1.33;1.17;;;2.70;35.50;;;;;;5094364;28;20173;-45
2024/01/20 03:07:00;;;;;;;0.80;0.30;;;2.70;35.80;;;;;;5094204;28;20179;-45
2024/01/20 03:09:26;;;;;;;1.10;0.87;;;2.60;35.10;;;;;;5094263;28;20200;-47
2024/01/20 03:11:52;;;;;;;1.00;0.80;;;2.60;34.80;;;;;;5093713;28;20426;-44
2024/01/20 03:14:17;;;;;;;0.80;0.30;;;2.50;35.00;;;;;;5094119;28;20213;-47
2024/01/20 03:16:43;;;;;;;0.80;0.50;;;2.50;35.10;;;;;;5094043;28;20192;-50
2024/01/20 03:19:09;;;;;;;1.73;0.60;;;2.60;35.10;;;;;;5094038;28;20173;-46
2024/01/20 03:21:35;;;;;;;1.63;0.80;;;2.60;35.20;;;;;;5093894;28;20666;-48
2024/01/20 03:24:00;;;;;;;1.73;0.97;;;2.60;35.20;;;;;;5093939;28;20175;-46
2024/01/20 03:26:26;;;;;;;0.70;0.20;;;2.60;34.80;;;;;;5094002;28;20257;-48
2024/01/20 03:28:52;;;;;;;0.80;0.40;;;2.60;34.80;;;;;;5093704;28;20489;-43
2024/01/20 03:31:18;;;;;;;1.10;0.70;;;2.60;34.90;;;;;;5093439;28;20216;-48
2024/01/20 03:33:44;;;;;;;0.80;0.40;;;2.60;34.50;;;;;;5093669;28;20179;-47
2024/01/20 03:36:11;;;;;;;0.80;0.20;;;2.60;34.90;;;;;;5093655;28;20164;-45
2024/01/20 03:38:37;;;;;;;2.30;1.20;;;2.60;34.50;;;;;;5093715;28;20803;-45
2024/01/20 03:41:03;;;;;;;3.80;1.10;;;2.50;34.80;;;;;;5093221;28;20208;-48
2024/01/20 03:43:28;;;;;;;0.90;0.57;;;2.40;34.80;;;;;;5093573;28;20894;-44
2024/01/20 03:45:55;;;;;;;0.90;0.67;;;2.50;34.80;;;;;;5093525;28;20411;-47
2024/01/20 03:48:21;;;;;;;0.82;0.43;;;2.40;34.70;;;;;;5093372;28;20231;-45
2024/01/20 03:50:47;;;;;;;0.90;0.60;;;2.30;35.20;;;;;;5093206;28;20216;-47
2024/01/20 03:53:13;;;;;;;1.10;0.93;;;2.40;35.30;;;;;;5093349;28;20443;-48
2024/01/20 03:55:39;;;;;;;1.77;0.73;;;2.40;35.00;;;;;;5093214;28;20233;-44
2024/01/20 03:58:05;;;;;;;0.70;0.20;;;2.50;34.80;;;;;;5093590;28;20176;-43
2024/01/20 04:00:31;;;;;;;0.90;0.55;;;2.50;34.50;;;;;;5093008;28;20521;-50
2024/01/20 04:02:56;;;;;;;1.73;0.80;;;2.60;34.90;;;;;;5093190;28;20722;-49
2024/01/20 04:05:23;;;;;;;2.87;2.60;;;2.60;34.70;;;;;;5093278;28;20173;-45
2024/01/20 04:07:48;;;;;;;0.75;0.30;;;2.60;34.60;;;;;;5092986;28;20438;-46
2024/01/20 04:10:14;;;;;;;0.70;0.20;;;2.60;34.60;;;;;;5092839;28;20185;-48
2024/01/20 04:12:40;;;;;;;1.73;0.97;;;2.50;34.70;;;;;;5092971;28;20410;-50
2024/01/20 04:15:06;;;;;;;0.70;0.30;;;2.60;34.50;;;;;;5092812;28;20501;-45
2024/01/20 04:17:32;;;;;;;0.80;0.20;;;2.60;34.70;;;;;;5092866;28;20448;-47
2024/01/20 04:19:58;;;;;;;1.20;0.90;;;2.60;34.80;;;;;;5092808;28;20199;-44
2024/01/20 04:22:24;;;;;;;0.80;0.30;;;2.50;34.70;;;;;;5092803;28;20403;-47
2024/01/20 04:24:49;;;;;;;0.80;0.43;;;2.50;34.70;;;;;;5092705;28;20164;-49
2024/01/20 04:27:15;;;;;;;1.23;0.80;;;2.50;34.60;;;;;;5092757;28;20686;-44
2024/01/20 04:29:41;;;;;;;1.63;0.63;;;2.40;34.70;;;;;;5092750;28;20222;-44
2024/01/20 04:32:06;;;;;;;0.90;0.57;;;2.30;34.50;;;;;;5092371;28;20423;-47
2024/01/20 04:34:32;;;;;;;1.00;0.80;;;2.30;34.80;;;;;;5092711;28;20168;-45
2024/01/20 04:36:58;;;;;;;0.70;0.27;;;2.30;34.30;;;;;;5092525;28;20172;-47
2024/01/20 04:39:24;;;;;;;0.80;0.40;;;2.40;34.80;;;;;;5092581;28;20183;-50
2024/01/20 04:41:49;;;;;;;0.70;0.30;;;2.40;34.80;;;;;;5092155;28;20283;-44
2024/01/20 04:44:15;;;;;;;0.80;0.30;;;2.40;34.80;;;;;;5092486;28;20192;-46
2024/01/20 04:46:41;;;;;;;0.90;0.75;;;2.50;34.90;;;;;;5092585;28;20523;-48
2024/01/20 04:49:07;;;;;;;0.80;0.30;;;2.40;34.40;;;;;;5092256;28;20214;-45
2024/01/20 04:51:33;;;;;;;3.33;1.47;;;2.40;34.80;;;;;;5092220;28;20193;-44
2024/01/20 04:53:58;;;;;;;2.03;0.83;;;2.40;34.80;;;;;;5094075;28;20180;-45
2024/01/20 04:56:24;;;;;;;1.00;0.67;;;2.40;34.80;;;;;;5094902;28;20398;-50
2024/01/20 04:58:51;;;;;;;4.03;1.97;;;2.40;34.70;;;;;;5093576;28;20218;-46
2024/01/20 05:01:17;;;;;;;3.65;0.82;;;2.40;34.60;;;;;;5093293;28;20521;-45
2024/01/20 05:03:43;;;;;;;1.33;0.85;;;2.30;34.50;;;;;;5095297;28;20180;-47
2024/01/20 05:06:09;;;;;;;3.33;3.13;;;2.30;34.50;;;;;;5093658;28;20179;-47
2024/01/20 05:08:35;;;;;;;0.80;0.40;;;2.20;34.50;;;;;;5092708;28;20286;-44
2024/01/20 05:11:00;;;;;;;0.70;0.20;;;2.20;34.60;;;;;;5094954;28;20188;-45
2024/01/20 05:13:26;;;;;;;0.80;0.20;;;2.10;34.70;;;;;;5095392;28;20168;-44
2024/01/20 05:15:53;;;;;;;0.80;0.30;;;2.10;34.60;;;;;;5092326;28;20168;-48
2024/01/20 05:18:19;;;;;;;0.95;0.80;;;2.10;34.90;;;;;;5093537;28;20413;-48
2024/01/20 05:20:45;;;;;;;0.80;0.40;;;2.00;34.80;;;;;;5096043;28;20196;-45
2024/01/20 05:23:11;;;;;;;0.80;0.43;;;2.00;34.90;;;;;;5096132;28;20172;-45
2024/01/20 05:25:37;;;;;;;1.00;0.90;;;2.00;34.80;;;;;;5096221;28;20176;-45
2024/01/20 05:28:04;;;;;;;0.90;0.53;;;2.00;34.90;;;;;;5095880;28;20450;-46
2024/01/20 05:30:29;;;;;;;0.80;0.47;;;2.00;34.50;;;;;;5096064;28;20850;-45
2024/01/20 05:32:55;;;;;;;1.23;1.13;;;2.00;34.90;;;;;;5096046;28;20261;-48
2024/01/20 05:35:21;;;;;;;0.97;0.70;;;2.00;35.00;;;;;;5095970;28;20413;-49
2024/01/20 05:37:47;;;;;;;0.80;0.43;;;2.00;34.90;;;;;;5096017;28;20179;-45
2024/01/20 05:40:13;;;;;;;1.07;0.53;;;2.10;34.90;;;;;;5095861;28;20187;-47
2024/01/20 05:42:38;;;;;;;0.80;0.30;;;2.00;34.50;;;;;;5095921;28;20745;-45
2024/01/20 05:45:08;;;;;;;0.70;0.20;;;2.00;34.70;;;;;;5096071;28;20267;-46
2024/01/20 05:47:35;;;;;;;0.95;0.77;;;2.10;34.60;;;;;;5095941;28;20188;-49
2024/01/20 05:50:02;;;;;;;1.17;0.73;;;2.10;34.80;;;;;;5095608;28;20177;-44
2024/01/20 05:52:28;;;;;;;0.82;0.60;;;2.20;34.60;;;;;;5095721;28;20187;-46
2024/01/20 05:54:54;;;;;;;0.70;0.30;;;2.20;34.60;;;;;;5095700;28;20530;-46
2024/01/20 05:57:19;;;;;;;0.70;0.20;;;2.20;34.20;;;;;;5095713;28;20172;-48
2024/01/20 05:59:45;;;;;;;0.80;0.30;;;2.20;34.50;;;;;;5095642;28;20222;-46
2024/01/20 06:02:11;;;;;;;0.90;0.40;;;2.20;34.50;;;;;;5095418;28;20553;-47
2024/01/20 06:04:37;;;;;;;0.80;0.40;;;2.20;34.40;;;;;;5095338;28;20175;-50
2024/01/20 06:07:02;;;;;;;0.80;0.60;;;2.10;34.40;;;;;;5095489;28;20176;-45
2024/01/20 06:09:28;;;;;;;2.30;0.97;;;2.10;34.40;;;;;;5095643;28;20331;-46
2024/01/20 06:11:54;;;;;;;0.80;0.37;;;2.10;34.50;;;;;;5094108;28;20422;-45
2024/01/20 06:14:20;;;;;;;0.90;0.67;;;2.00;34.50;;;;;;5095402;28;20248;-45
2024/01/20 06:16:45;;;;;;;0.80;0.30;;;2.00;35.00;;;;;;5095518;28;20263;-48
2024/01/20 06:19:11;;;;;;;1.83;1.33;;;1.90;34.80;;;;;;5095137;28;20176;-48
2024/01/20 06:21:37;;;;;;;0.80;0.50;;;2.00;34.90;;;;;;5095098;28;21024;-45
2024/01/20 06:24:03;;;;;;;2.40;0.50;;;2.10;34.80;;;;;;5095009;28;20173;-43
2024/01/20 06:26:28;;;;;;;1.00;0.80;;;2.10;34.80;;;;;;5095287;28;20251;-49
2024/01/20 06:28:54;;;;;;;0.80;0.30;;;2.10;34.80;;;;;;5094415;28;20812;-49
2024/01/20 06:31:27;;;;;;;1.10;0.63;;;2.20;34.40;;;;;;5093911;28;20792;-44
2024/01/20 06:33:54;;;;;;;0.90;0.75;;;2.10;34.50;;;;;;5095076;28;20179;-47
2024/01/20 06:36:26;;;;;;;0.85;0.60;;;2.20;34.70;;;;;;5095047;28;20202;-47
2024/01/20 06:38:52;;;;;;;1.75;1.60;;;2.20;34.60;;;;;;5096614;28;20172;-46
2024/01/20 06:41:17;;;;;;;0.80;0.47;;;2.20;34.50;;;;;;5095752;28;20588;-44
2024/01/20 06:43:43;;;;;;;0.80;0.30;;;2.20;34.50;;;;;;5094790;28;20890;-47
2024/01/20 06:46:09;;;;;;;0.90;0.70;;;2.10;34.50;;;;;;5094734;28;20179;-44
2024/01/20 06:48:35;;;;;;;5.77;1.30;;;2.20;34.60;;;;;;5094778;28;20871;-46
2024/01/20 06:51:01;;;;;;;1.10;0.55;;;2.20;34.70;;;;;;5094541;28;20192;-47
2024/01/20 06:53:27;;;;;;;1.00;0.60;;;2.10;34.50;;;;;;5094688;28;20161;-47
2024/01/20 06:55:53;;;;;;;0.70;0.30;;;2.20;34.60;;;;;;5094529;28;20169;-44
2024/01/20 06:58:19;;;;;;;0.70;0.20;;;2.00;34.60;;;;;;5094575;28;20180;-48
2024/01/20 07:00:45;;;;;;;1.25;0.82;;;2.10;34.90;;;;;;5094142;28;20670;-49
2024/01/20 07:03:11;;;;;;;0.90;0.60;;;2.10;34.90;;;;;;5094203;28;20176;-45
2024/01/20 07:05:37;;;;;;;0.80;0.40;;;2.20;34.70;;;;;;5094535;28;20415;-44
2024/01/20 07:08:04;;;;;;;1.37;1.07;;;2.20;34.40;;;;;;5094120;28;20523;-46
2024/01/20 07:10:30;;;;;;;0.70;0.20;;;2.20;34.60;;;;;;5094159;28;20268;-43
2024/01/20 07:12:55;;;;;;;1.47;1.37;;;2.20;34.70;;;;;;5094171;28;20859;-50
2024/01/20 07:15:21;;;;;;;0.80;0.50;;;2.30;34.50;;;;;;5094108;28;20160;-44
2024/01/20 07:17:47;;;;;;;0.80;0.40;;;2.20;34.50;;;;;;5093933;28;20177;-45
2024/01/20 07:20:13;;;;;;;0.70;0.20;;;2.20;34.50;;;;;;5093787;28;20489;-48
2024/01/20 07:22:41;;;;;;;0.70;0.30;;;2.20;34.40;;;;;;5094114;28;20667;-43
2024/01/20 07:25:08;;;;;;;1.60;0.93;;;2.20;34.40;;;;;;5093907;28;20407;-49
2024/01/20 07:27:34;;;;;;;0.90;0.52;;;2.30;34.30;;;;;;5093920;28;20188;-50
2024/01/20 07:30:00;;;;;;;0.70;0.20;;;2.30;34.30;;;;;;5093719;28;20646;-44
2024/01/20 07:32:26;;;;;;;2.17;0.68;;;2.30;34.40;;;;;;5093650;28;20394;-43
2024/01/20 07:34:52;;;;;;;0.80;0.30;;;2.30;34.50;;;;;;5093961;28;20188;-50
2024/01/20 07:37:18;;;;;;;3.13;1.27;;;2.40;34.00;;;;;;5093747;28;20682;-46
2024/01/20 07:39:43;;;;;;;1.67;1.20;;;2.70;34.50;;;;;;5093563;28;20411;-48
2024/01/20 07:42:10;;;;;;;0.90;0.60;;;2.90;33.40;;;;;;5093120;28;20686;-44
2024/01/20 07:44:36;;;;;;;0.80;0.40;;;3.10;33.40;;;;;;5093474;28;20418;-45
2024/01/20 07:47:02;;;;;;;0.87;0.50;;;3.10;33.30;;;;;;5093545;28;20176;-50
2024/01/20 07:49:28;;;;;;;0.90;0.52;;;3.10;33.20;;;;;;5093457;28;20789;-47
2024/01/20 07:51:53;;;;;;;1.20;1.10;;;3.10;33.00;;;;;;5093328;28;20195;-45
2024/01/20 07:54:19;;;;;;;1.53;1.13;;;3.10;33.30;;;;;;5093222;28;20406;-47
2024/01/20 07:56:45;;;;;;;2.00;1.83;;;3.40;33.50;;;;;;5093227;28;20832;-51
2024/01/20 07:59:11;;;;;;;1.50;1.40;;;3.80;33.50;;;;;;5093180;28;20165;-45
2024/01/20 08:01:36;;;;;;;0.80;0.40;;;4.20;33.10;;;;;;5092912;28;20200;-44
2024/01/20 08:04:03;;;;;;;0.90;0.50;;;4.30;31.50;;;;;;5093222;28;20183;-47
2024/01/20 08:06:28;;;;;;;1.00;0.70;;;4.40;31.10;;;;;;5093337;28;20176;-45
2024/01/20 08:08:54;;;;;;;0.90;0.67;;;4.30;31.00;;;;;;5092945;28;20208;-45
2024/01/20 08:11:20;;;;;;;0.90;0.50;;;4.10;31.00;;;;;;5092814;28;20257;-50
2024/01/20 08:13:46;;;;;;;1.83;1.47;;;4.40;31.50;;;;;;5092970;28;20164;-45
2024/01/20 08:16:11;;;;;;;0.90;0.70;;;4.70;31.80;;;;;;5092970;28;20252;-45
2024/01/20 08:18:37;;;;;;;0.80;0.40;;;5.10;30.80;;;;;;5092844;28;20168;-46
2024/01/20 08:21:07;;;;;;;0.80;0.30;;;5.30;30.00;;;;;;5092649;28;20188;-46
2024/01/20 08:23:33;;;;;;;0.80;0.30;;;5.60;29.20;;;;;;5092869;28;20180;-44
2024/01/20 08:25:59;;;;;;;1.30;1.20;;;5.70;29.30;;;;;;5092745;28;20237;-43
2024/01/20 08:28:25;;;;;;;1.07;0.57;;;5.70;28.50;;;;;;5092600;28;20212;-46
2024/01/20 08:30:50;;;;;;;0.80;0.30;;;5.70;28.10;;;;;;5093473;28;20426;-46
2024/01/20 08:33:16;;;;;;;1.80;1.23;;;5.90;29.10;;;;;;5094004;28;20211;-43
2024/01/20 08:35:42;;;;;;;1.40;1.03;;;6.00;27.70;;;;;;5092648;28;20237;-47
2024/01/20 08:38:08;;;;;;;0.90;0.50;;;6.20;28.60;;;;;;5092956;28;20414;-49
2024/01/20 08:40:33;;;;;;;1.17;0.77;;;6.30;27.00;;;;;;5092694;28;20212;-45
2024/01/20 08:42:59;;;;;;;1.60;0.73;;;6.20;27.80;;;;;;5093089;28;20194;-42
2024/01/20 08:45:25;;;;;;;1.00;0.87;;;6.40;26.90;;;;;;5092667;28;20185;-46
2024/01/20 08:47:50;;;;;;;1.63;1.33;;;6.40;26.70;;;;;;5093004;28;20176;-49
2024/01/20 08:50:16;;;;;;;0.80;0.40;;;6.70;27.60;;;;;;5092795;28;20177;-45
2024/01/20 08:52:42;;;;;;;1.20;0.87;;;6.90;26.30;;;;;;5091632;28;20178;-45
2024/01/20 08:55:08;;;;;;;1.40;1.13;;;6.90;27.00;;;;;;5092329;28;20172;-48
2024/01/20 08:57:34;;;;;;;1.70;0.90;;;6.70;25.60;;;;;;5092256;28;20191;-47
2024/01/20 09:00:00;;;;;;;1.80;1.15;;;6.70;26.90;;;;;;5092305;28;20231;-46
2024/01/20 09:02:27;;;;;;;0.88;0.55;;;7.00;25.60;;;;;;5092250;28;20202;-47
2024/01/20 09:04:52;;;;;;;3.28;0.98;;;7.10;26.20;;;;;;5092074;28;20199;-45
2024/01/20 09:07:20;;;;;;;3.20;1.50;;;7.50;25.70;;;;;;5092150;28;20211;-51
2024/01/20 09:09:46;;;;;;;1.63;1.00;;;8.00;24.40;;;;;;5091992;28;20208;-44
2024/01/20 09:12:13;;;;;;;3.92;0.93;;;8.60;23.80;;;;;;5091753;28;20608;-44
2024/01/20 09:14:39;;;;;;;2.10;0.88;;;9.10;23.70;;;;;;5092332;28;20171;-50
2024/01/20 09:17:04;;;;;;;1.47;0.87;;;9.40;21.30;;;;;;5092222;28;20176;-45
2024/01/20 09:19:30;;;;;;;1.00;0.80;;;9.80;21.80;;;;;;5092192;28;20516;-45
2024/01/20 09:21:56;;;;;;;1.03;0.77;;;9.90;22.40;;;;;;5091648;28;20780;-51
2024/01/20 09:24:22;;;;;;;1.00;0.80;;;9.90;21.80;;;;;;5092075;28;20172;-49
2024/01/20 09:26:47;;;;;;;1.20;0.70;;;9.70;21.10;;;;;;5091962;28;20172;-45
2024/01/20 09:29:13;;;;;;;1.73;1.27;;;9.50;21.30;;;;;;5092362;28;20203;-48
2024/01/20 09:31:39;;;;;;;3.33;1.23;;;9.20;22.20;;;;;;5091791;28;20724;-51
2024/01/20 09:34:05;;;;;;;0.93;0.50;;;9.00;22.30;;;;;;5092029;28;20755;-45
2024/01/20 09:36:30;;;;;;;1.03;0.50;;;8.70;22.70;;;;;;5091819;28;20164;-50
2024/01/20 09:38:56;;;;;;;2.40;0.73;;;8.60;22.60;;;;;;5091879;28;20176;-45
2024/01/20 09:41:23;;;;;;;0.97;0.43;;;8.50;23.30;;;;;;5091434;28;20265;-45
2024/01/20 09:43:50;;;;;;;1.38;0.77;;;8.50;23.40;;;;;;5091983;28;20542;-47
2024/01/20 09:46:16;;;;;;;2.55;1.75;;;8.30;23.30;;;;;;5091718;28;20180;-49
2024/01/20 09:48:43;;;;;;;1.13;0.70;;;7.90;22.80;;;;;;5091772;28;20204;-44
2024/01/20 09:51:09;;;;;;;1.30;0.90;;;7.60;24.20;;;;;;5091574;28;20740;-48
2024/01/20 09:53:35;;;;;;;1.00;0.68;;;7.50;25.10;;;;;;5091656;28;20184;-42
2024/01/20 09:56:02;;;;;;;1.63;1.30;;;7.40;23.40;;;;;;5091558;28;20187;-50
2024/01/20 09:58:29;;;;;;;3.10;0.95;;;7.40;25.20;;;;;;5091917;28;20181;-50
2024/01/20 10:00:55;;;;;;;11.68;1.40;;;7.70;24.80;;;;;;5091664;28;20200;-45
2024/01/20 10:03:24;;;;;;;1.20;0.80;;;8.20;24.40;;;;;;5091720;28;20177;-44
2024/01/20 10:05:52;;;;;;;3.83;1.23;;;8.70;22.70;;;;;;5095251;28;20253;-48
2024/01/20 10:08:18;;;;;;;3.70;3.08;;;9.00;22.00;;;;;;5095197;28;20204;-45
2024/01/20 10:10:43;;;;;;;8.50;1.33;;;9.10;22.40;;;;;;5095092;28;20234;-46
2024/01/20 10:13:09;;;;;;;1.47;0.80;;;9.10;23.20;;;;;;5095743;28;20172;-48
2024/01/20 10:15:35;;;;;;;2.77;1.10;;;9.20;22.90;;;;;;5096649;28;20482;-49
2024/01/20 10:18:10;;;;;;;1.10;0.85;;;9.20;22.90;;;;;;5096647;28;20433;-45
2024/01/20 10:20:36;;;;;;;1.30;0.85;;;9.70;21.30;;;;;;5095796;28;20328;-50
2024/01/20 10:23:07;;;;;;;1.42;0.85;;;10.30;22.40;;;;;;5094937;28;20225;-51
2024/01/20 10:25:33;;;;;;;1.42;0.95;;;10.80;20.10;;;;;;5095286;28;20179;-45
2024/01/20 10:27:58;;;;;;;1.20;0.93;;;11.10;20.20;;;;;;5094834;28;20168;-47
2024/01/20 10:30:25;;;;;;;3.27;1.67;;;11.80;20.60;;;;;;5094678;28;20471;-50
2024/01/20 10:32:51;;;;;;;4.60;2.13;;;12.40;20.60;;;;;;5094932;28;20407;-45
2024/01/20 10:35:17;;;;;;;2.42;1.70;;;12.70;19.90;;;;;;5093732;28;20164;-45
2024/01/20 10:37:44;;;;;;;1.67;1.40;;;13.20;18.50;;;;;;5093609;28;20176;-49
2024/01/20 10:40:14;;;;;;;3.88;1.83;;;13.50;18.10;;;;;;5094463;28;20271;-45
2024/01/20 10:42:45;;;;;;;1.33;1.23;;;13.70;18.70;;;;;;5093393;28;20168;-46
2024/01/20 10:45:17;;;;;;;1.35;1.15;;;14.00;17.70;;;;;;5094702;28;20191;-50
2024/01/20 10:47:57;;;;;;;1.38;0.90;;;13.90;17.50;;;;;;5094690;28;20526;-45
2024/01/20 10:50:25;;;;;;;1.60;1.20;;;13.50;18.30;;;;;;5094493;28;20196;-51
2024/01/20 10:52:51;;;;;;;1.92;1.60;;;13.10;17.40;;;;;;5094436;28;20634;-46
2024/01/20 10:55:18;;;;;;;1.30;1.05;;;12.90;18.30;;;;;;5094459;28;20168;-44
2024/01/20 10:57:48;;;;;;;4.00;1.58;;;12.90;18.60;;;;;;5094540;28;20545;-45
2024/01/20 11:00:16;;;;;;;2.10;1.27;;;12.80;18.20;;;;;;5094159;28;20242;-47
2024/01/20 11:02:43;;;;;;;2.38;1.52;;;12.60;18.90;;;;;;5094140;28;20662;-47
2024/01/20 11:05:20;;;;;;;1.00;0.80;;;12.30;18.20;;;;;;5094321;28;20172;-45
2024/01/20 11:08:07;;;;;;;1.90;1.25;;;12.10;18.80;;;;;;5094242;28;20172;-46
2024/01/20 11:10:39;;;;;;;1.83;1.15;;;11.70;19.10;;;;;;5094271;28;20188;-46
2024/01/20 11:13:06;;;;;;;2.38;1.85;;;11.70;19.90;;;;;;5094098;28;20207;-47
2024/01/20 11:15:33;;;;;;;1.88;1.30;;;11.60;19.90;;;;;;5093578;28;20534;-44
2024/01/20 11:18:00;;;;;;;1.90;1.13;;;11.50;20.50;;;;;;5094017;28;20169;-44
2024/01/20 11:20:27;;;;;;;2.13;0.98;;;11.10;20.00;;;;;;5093830;28;20253;-47
2024/01/20 11:22:54;;;;;;;1.55;1.35;;;10.90;20.90;;;;;;5093953;28;20176;-46
2024/01/20 11:25:22;;;;;;;1.95;0.90;;;10.50;20.30;;;;;;5093846;28;20183;-45
2024/01/20 11:27:55;;;;;;;1.40;0.80;;;10.10;21.60;;;;;;5093747;28;20702;-47
2024/01/20 11:30:29;;;;;;;1.55;1.45;;;10.00;21.70;;;;;;5093758;28;20204;-45
2024/01/20 11:32:58;;;;;;;1.90;0.70;;;9.70;22.70;;;;;;5093908;28;20177;-43
2024/01/20 11:35:24;;;;;;;1.48;0.80;;;9.50;22.90;;;;;;5093670;28;20225;-47
2024/01/20 11:37:53;;;;;;;2.63;1.10;;;9.50;22.60;;;;;;5093592;28;20165;-47
2024/01/20 11:40:18;;;;;;;1.40;0.63;;;9.50;23.10;;;;;;5093140;28;20203;-45
2024/01/20 11:42:44;;;;;;;2.80;1.43;;;9.40;23.50;;;;;;5093768;28;20169;-44
2024/01/20 11:45:10;;;;;;;2.23;1.60;;;9.40;23.40;;;;;;5093403;28;20557;-48
2024/01/20 11:47:36;;;;;;;1.48;1.20;;;9.50;24.10;;;;;;5093568;28;20538;-46
2024/01/20 11:50:02;;;;;;;1.87;0.73;;;9.60;23.00;;;;;;5094351;28;20215;-44
2024/01/20 11:52:28;;;;;;;2.37;1.80;;;9.60;23.90;;;;;;5093735;28;20912;-50
2024/01/20 11:54:54;;;;;;;2.60;1.65;;;9.80;23.40;;;;;;5093579;28;20406;-50
2024/01/20 11:57:21;;;;;;;1.65;1.52;;;10.10;24.40;;;;;;5093714;28;20646;-45
2024/01/20 11:59:47;;;;;;;1.67;1.35;;;10.30;23.40;;;;;;5093676;28;20210;-51
2024/01/20 12:02:15;;;;;;;7.00;2.08;;;10.50;23.70;;;;;;5092923;28;20820;-50
2024/01/20 12:04:41;;;;;;;1.77;1.52;;;10.70;22.20;;;;;;5093674;28;20181;-45
2024/01/20 12:07:07;;;;;;;1.83;0.88;;;11.10;23.20;;;;;;5093454;28;20184;-46
2024/01/20 12:09:33;;;;;;;2.20;1.85;;;11.40;22.80;;;;;;5092988;28;20603;-49
2024/01/20 12:11:59;;;;;;;5.00;1.83;;;11.90;21.90;;;;;;5092948;28;20663;-44
2024/01/20 12:14:26;;;;;;;1.70;1.35;;;12.20;20.70;;;;;;5092968;28;20213;-46
2024/01/20 12:16:56;;;;;;;2.88;1.50;;;12.30;20.00;;;;;;5092871;28;20642;-49
2024/01/20 12:19:21;;;;;;;2.55;1.25;;;12.10;20.50;;;;;;5092806;28;20634;-46
2024/01/20 12:21:47;;;;;;;1.33;1.23;;;12.10;20.00;;;;;;5092521;28;20206;-44
2024/01/20 12:24:13;;;;;;;1.77;1.67;;;12.00;20.10;;;;;;5092804;28;20646;-48
2024/01/20 12:26:41;;;;;;;2.10;1.77;;;12.00;20.30;;;;;;5092993;28;20257;-44
2024/01/20 12:29:07;;;;;;;1.27;0.85;;;11.90;21.30;;;;;;5092608;28;20697;-51
2024/01/20 12:31:33;;;;;;;5.18;2.70;;;12.00;20.40;;;;;;5092430;28;20202;-49
2024/01/20 12:34:00;;;;;;;2.40;1.33;;;12.30;21.20;;;;;;5092470;28;20172;-45
2024/01/20 12:36:27;;;;;;;1.45;0.98;;;12.50;19.70;;;;;;5092426;28;20180;-47
2024/01/20 12:38:52;;;;;;;2.22;1.27;;;12.90;19.10;;;;;;5092455;28;20172;-51
2024/01/20 12:41:18;;;;;;;4.33;2.03;;;13.60;18.40;;;;;;5092147;28;20257;-51
2024/01/20 12:43:48;;;;;;;3.47;0.97;;;14.20;19.00;;;;;;5092644;28;20418;-45
2024/01/20 12:46:14;;;;;;;2.20;1.95;;;14.90;18.40;;;;;;5092579;28;20410;-47
2024/01/20 12:48:40;;;;;;;2.13;1.92;;;15.60;17.20;;;;;;5092297;28;20200;-47
2024/01/20 12:51:06;;;;;;;2.67;2.47;;;16.00;16.60;;;;;;5091973;28;20216;-45